sensor_id;sensor_type;location;lat;lon;timestamp;P1;durP1;ratioP1;P2;durP2;ratioP2
16031;SDS011;8120;48.308;8.914;2022-07-29T00:01:40;3.40;;;2.50;;
16031;SDS011;8120;48.308;8.914;2022-07-29T00:04:08;3.47;;;2.43;;
16031;SDS011;8120;48.308;8.914;2022-07-29T00:06:38;4.97;;;3.20;;
16031;SDS011;8120;48.308;8.914;2022-07-29T00:09:06;5.13;;;3.30;;
16031;SDS011;8120;48.308;8.914;2022-07-29T00:11:34;3.60;;;2.90;;
16031;SDS011;8120;48.308;8.914;2022-07-29T00:14:02;4.30;;;2.60;;
16031;SDS011;8120;48.308;8.914;2022-07-29T00:16:29;4.87;;;3.07;;
16031;SDS011;8120;48.308;8.914;2022-07-29T00:18:58;3.30;;;3.00;;
16031;SDS011;8120;48.308;8.914;2022-07-29T00:21:27;5.17;;;3.30;;
16031;SDS011;8120;48.308;8.914;2022-07-29T00:23:57;3.90;;;3.13;;
16031;SDS011;8120;48.308;8.914;2022-07-29T00:26:25;3.63;;;2.83;;
16031;SDS011;8120;48.308;8.914;2022-07-29T00:28:57;3.63;;;2.47;;
16031;SDS011;8120;48.308;8.914;2022-07-29T00:31:45;3.77;;;2.43;;
16031;SDS011;8120;48.308;8.914;2022-07-29T00:34:13;3.13;;;2.73;;
16031;SDS011;8120;48.308;8.914;2022-07-29T00:36:55;3.47;;;2.47;;
16031;SDS011;8120;48.308;8.914;2022-07-29T00:39:25;2.93;;;2.60;;
16031;SDS011;8120;48.308;8.914;2022-07-29T00:41:54;4.00;;;2.50;;
16031;SDS011;8120;48.308;8.914;2022-07-29T00:44:22;3.60;;;2.20;;
16031;SDS011;8120;48.308;8.914;2022-07-29T00:46:49;2.10;;;1.90;;
16031;SDS011;8120;48.308;8.914;2022-07-29T00:49:17;2.80;;;2.30;;
16031;SDS011;8120;48.308;8.914;2022-07-29T00:51:45;3.90;;;2.37;;
16031;SDS011;8120;48.308;8.914;2022-07-29T00:54:14;2.00;;;1.80;;
16031;SDS011;8120;48.308;8.914;2022-07-29T00:56:44;3.00;;;2.17;;
16031;SDS011;8120;48.308;8.914;2022-07-29T00:59:12;3.13;;;2.40;;
16031;SDS011;8120;48.308;8.914;2022-07-29T01:01:40;2.53;;;2.20;;
16031;SDS011;8120;48.308;8.914;2022-07-29T01:04:08;4.47;;;2.23;;
16031;SDS011;8120;48.308;8.914;2022-07-29T01:06:35;2.97;;;1.90;;
16031;SDS011;8120;48.308;8.914;2022-07-29T01:09:03;1.90;;;1.77;;
16031;SDS011;8120;48.308;8.914;2022-07-29T01:11:32;2.07;;;1.90;;
16031;SDS011;8120;48.308;8.914;2022-07-29T01:14:03;3.20;;;2.10;;
16031;SDS011;8120;48.308;8.914;2022-07-29T01:16:35;2.80;;;2.03;;
16031;SDS011;8120;48.308;8.914;2022-07-29T01:19:12;2.10;;;1.90;;
16031;SDS011;8120;48.308;8.914;2022-07-29T01:21:50;1.97;;;1.83;;
16031;SDS011;8120;48.308;8.914;2022-07-29T01:24:27;2.73;;;2.40;;
16031;SDS011;8120;48.308;8.914;2022-07-29T01:27:10;3.77;;;2.40;;
16031;SDS011;8120;48.308;8.914;2022-07-29T01:29:54;4.47;;;2.47;;
16031;SDS011;8120;48.308;8.914;2022-07-29T01:32:25;2.57;;;1.97;;
16031;SDS011;8120;48.308;8.914;2022-07-29T01:34:55;2.43;;;1.67;;
16031;SDS011;8120;48.308;8.914;2022-07-29T01:37:29;2.80;;;1.90;;
16031;SDS011;8120;48.308;8.914;2022-07-29T01:40:03;2.60;;;2.20;;
16031;SDS011;8120;48.308;8.914;2022-07-29T01:42:36;3.90;;;2.23;;
16031;SDS011;8120;48.308;8.914;2022-07-29T01:45:12;5.30;;;2.23;;
16031;SDS011;8120;48.308;8.914;2022-07-29T01:47:44;2.47;;;2.00;;
16031;SDS011;8120;48.308;8.914;2022-07-29T01:50:20;2.63;;;2.07;;
16031;SDS011;8120;48.308;8.914;2022-07-29T01:52:56;3.30;;;2.43;;
16031;SDS011;8120;48.308;8.914;2022-07-29T01:55:27;2.53;;;1.97;;
16031;SDS011;8120;48.308;8.914;2022-07-29T01:57:58;2.30;;;2.07;;
16031;SDS011;8120;48.308;8.914;2022-07-29T02:00:29;4.83;;;2.30;;
16031;SDS011;8120;48.308;8.914;2022-07-29T02:02:58;5.77;;;2.60;;
16031;SDS011;8120;48.308;8.914;2022-07-29T02:05:29;3.73;;;2.37;;
16031;SDS011;8120;48.308;8.914;2022-07-29T02:07:59;2.77;;;2.30;;
16031;SDS011;8120;48.308;8.914;2022-07-29T02:10:30;2.13;;;1.90;;
16031;SDS011;8120;48.308;8.914;2022-07-29T02:13:00;2.97;;;2.17;;
16031;SDS011;8120;48.308;8.914;2022-07-29T02:15:32;3.90;;;2.20;;
16031;SDS011;8120;48.308;8.914;2022-07-29T02:18:02;3.80;;;2.30;;
16031;SDS011;8120;48.308;8.914;2022-07-29T02:20:34;3.77;;;2.33;;
16031;SDS011;8120;48.308;8.914;2022-07-29T02:23:03;2.97;;;2.43;;
16031;SDS011;8120;48.308;8.914;2022-07-29T02:25:33;5.10;;;2.40;;
16031;SDS011;8120;48.308;8.914;2022-07-29T02:28:04;2.40;;;2.00;;
16031;SDS011;8120;48.308;8.914;2022-07-29T02:30:34;4.93;;;2.90;;
16031;SDS011;8120;48.308;8.914;2022-07-29T02:33:03;2.47;;;2.20;;
16031;SDS011;8120;48.308;8.914;2022-07-29T02:35:32;3.57;;;2.57;;
16031;SDS011;8120;48.308;8.914;2022-07-29T02:38:00;2.80;;;2.40;;
16031;SDS011;8120;48.308;8.914;2022-07-29T02:40:47;3.80;;;2.23;;
16031;SDS011;8120;48.308;8.914;2022-07-29T02:43:17;3.37;;;2.27;;
16031;SDS011;8120;48.308;8.914;2022-07-29T02:45:49;3.77;;;3.07;;
16031;SDS011;8120;48.308;8.914;2022-07-29T02:48:21;4.33;;;2.83;;
16031;SDS011;8120;48.308;8.914;2022-07-29T02:50:55;4.50;;;3.00;;
16031;SDS011;8120;48.308;8.914;2022-07-29T02:53:32;4.20;;;3.03;;
16031;SDS011;8120;48.308;8.914;2022-07-29T02:56:03;4.50;;;3.10;;
16031;SDS011;8120;48.308;8.914;2022-07-29T02:58:37;3.90;;;2.73;;
16031;SDS011;8120;48.308;8.914;2022-07-29T03:01:11;3.67;;;2.87;;
16031;SDS011;8120;48.308;8.914;2022-07-29T03:03:47;3.27;;;2.80;;
16031;SDS011;8120;48.308;8.914;2022-07-29T03:06:17;4.37;;;2.80;;
16031;SDS011;8120;48.308;8.914;2022-07-29T03:09:05;4.27;;;2.60;;
16031;SDS011;8120;48.308;8.914;2022-07-29T03:11:39;4.10;;;2.60;;
16031;SDS011;8120;48.308;8.914;2022-07-29T03:14:16;2.90;;;2.50;;
16031;SDS011;8120;48.308;8.914;2022-07-29T03:16:47;3.63;;;2.90;;
16031;SDS011;8120;48.308;8.914;2022-07-29T03:19:15;2.97;;;2.50;;
16031;SDS011;8120;48.308;8.914;2022-07-29T03:21:44;5.60;;;2.37;;
16031;SDS011;8120;48.308;8.914;2022-07-29T03:24:23;2.97;;;2.50;;
16031;SDS011;8120;48.308;8.914;2022-07-29T03:26:56;6.63;;;2.80;;
16031;SDS011;8120;48.308;8.914;2022-07-29T03:29:25;3.20;;;2.33;;
16031;SDS011;8120;48.308;8.914;2022-07-29T03:32:00;5.17;;;2.13;;
16031;SDS011;8120;48.308;8.914;2022-07-29T03:34:34;3.73;;;2.50;;
16031;SDS011;8120;48.308;8.914;2022-07-29T03:37:03;2.80;;;2.10;;
16031;SDS011;8120;48.308;8.914;2022-07-29T03:39:33;2.13;;;1.93;;
16031;SDS011;8120;48.308;8.914;2022-07-29T03:42:05;5.07;;;2.30;;
16031;SDS011;8120;48.308;8.914;2022-07-29T03:44:35;3.23;;;2.60;;
16031;SDS011;8120;48.308;8.914;2022-07-29T03:47:05;2.77;;;1.93;;
16031;SDS011;8120;48.308;8.914;2022-07-29T03:49:36;2.90;;;2.17;;
16031;SDS011;8120;48.308;8.914;2022-07-29T03:52:05;2.60;;;2.00;;
16031;SDS011;8120;48.308;8.914;2022-07-29T03:54:34;2.93;;;2.30;;
16031;SDS011;8120;48.308;8.914;2022-07-29T03:57:02;5.93;;;2.57;;
16031;SDS011;8120;48.308;8.914;2022-07-29T03:59:32;2.53;;;2.17;;
16031;SDS011;8120;48.308;8.914;2022-07-29T04:02:02;2.73;;;2.17;;
16031;SDS011;8120;48.308;8.914;2022-07-29T04:04:33;3.43;;;2.17;;
16031;SDS011;8120;48.308;8.914;2022-07-29T04:07:02;2.43;;;2.23;;
16031;SDS011;8120;48.308;8.914;2022-07-29T04:09:30;2.93;;;2.00;;
16031;SDS011;8120;48.308;8.914;2022-07-29T04:11:58;2.63;;;2.43;;
16031;SDS011;8120;48.308;8.914;2022-07-29T04:14:30;4.37;;;2.47;;
16031;SDS011;8120;48.308;8.914;2022-07-29T04:16:58;3.27;;;2.40;;
16031;SDS011;8120;48.308;8.914;2022-07-29T04:19:27;3.47;;;1.90;;
16031;SDS011;8120;48.308;8.914;2022-07-29T04:21:56;5.63;;;2.40;;
16031;SDS011;8120;48.308;8.914;2022-07-29T04:24:25;3.03;;;2.20;;
16031;SDS011;8120;48.308;8.914;2022-07-29T04:26:53;4.73;;;2.23;;
16031;SDS011;8120;48.308;8.914;2022-07-29T04:29:21;3.10;;;2.07;;
16031;SDS011;8120;48.308;8.914;2022-07-29T04:31:49;3.57;;;2.40;;
16031;SDS011;8120;48.308;8.914;2022-07-29T04:34:17;4.90;;;2.40;;
16031;SDS011;8120;48.308;8.914;2022-07-29T04:36:45;4.23;;;2.27;;
16031;SDS011;8120;48.308;8.914;2022-07-29T04:39:15;2.03;;;1.70;;
16031;SDS011;8120;48.308;8.914;2022-07-29T04:41:48;3.60;;;2.37;;
16031;SDS011;8120;48.308;8.914;2022-07-29T04:44:20;1.70;;;1.60;;
16031;SDS011;8120;48.308;8.914;2022-07-29T04:46:54;3.33;;;2.03;;
16031;SDS011;8120;48.308;8.914;2022-07-29T04:49:22;3.70;;;2.30;;
16031;SDS011;8120;48.308;8.914;2022-07-29T04:51:51;4.23;;;2.10;;
16031;SDS011;8120;48.308;8.914;2022-07-29T04:54:20;3.30;;;2.20;;
16031;SDS011;8120;48.308;8.914;2022-07-29T04:56:48;3.03;;;2.17;;
16031;SDS011;8120;48.308;8.914;2022-07-29T04:59:16;3.70;;;2.30;;
16031;SDS011;8120;48.308;8.914;2022-07-29T05:01:44;3.07;;;2.37;;
16031;SDS011;8120;48.308;8.914;2022-07-29T05:04:12;5.10;;;3.00;;
16031;SDS011;8120;48.308;8.914;2022-07-29T05:06:40;2.57;;;2.00;;
16031;SDS011;8120;48.308;8.914;2022-07-29T05:09:08;3.37;;;2.50;;
16031;SDS011;8120;48.308;8.914;2022-07-29T05:11:37;3.43;;;2.37;;
16031;SDS011;8120;48.308;8.914;2022-07-29T05:14:05;4.40;;;2.40;;
16031;SDS011;8120;48.308;8.914;2022-07-29T05:16:33;2.93;;;2.43;;
16031;SDS011;8120;48.308;8.914;2022-07-29T05:19:01;5.43;;;2.50;;
16031;SDS011;8120;48.308;8.914;2022-07-29T05:21:29;4.27;;;2.47;;
16031;SDS011;8120;48.308;8.914;2022-07-29T05:23:57;5.80;;;2.67;;
16031;SDS011;8120;48.308;8.914;2022-07-29T05:26:25;4.17;;;2.33;;
16031;SDS011;8120;48.308;8.914;2022-07-29T05:28:54;5.03;;;2.70;;
16031;SDS011;8120;48.308;8.914;2022-07-29T05:31:23;3.93;;;2.50;;
16031;SDS011;8120;48.308;8.914;2022-07-29T05:33:51;4.17;;;2.73;;
16031;SDS011;8120;48.308;8.914;2022-07-29T05:36:19;2.63;;;2.37;;
16031;SDS011;8120;48.308;8.914;2022-07-29T05:38:47;5.17;;;2.50;;
16031;SDS011;8120;48.308;8.914;2022-07-29T05:41:14;5.07;;;2.90;;
16031;SDS011;8120;48.308;8.914;2022-07-29T05:43:42;4.00;;;2.97;;
16031;SDS011;8120;48.308;8.914;2022-07-29T05:46:11;4.13;;;2.80;;
16031;SDS011;8120;48.308;8.914;2022-07-29T05:48:40;4.57;;;2.33;;
16031;SDS011;8120;48.308;8.914;2022-07-29T05:51:08;4.03;;;2.83;;
16031;SDS011;8120;48.308;8.914;2022-07-29T05:53:36;3.50;;;2.70;;
16031;SDS011;8120;48.308;8.914;2022-07-29T05:56:04;3.90;;;2.90;;
16031;SDS011;8120;48.308;8.914;2022-07-29T05:58:33;5.20;;;3.00;;
16031;SDS011;8120;48.308;8.914;2022-07-29T06:01:02;3.77;;;2.80;;
16031;SDS011;8120;48.308;8.914;2022-07-29T06:03:31;4.90;;;2.53;;
16031;SDS011;8120;48.308;8.914;2022-07-29T06:06:00;3.70;;;2.77;;
16031;SDS011;8120;48.308;8.914;2022-07-29T06:08:28;6.07;;;2.80;;
16031;SDS011;8120;48.308;8.914;2022-07-29T06:10:56;5.63;;;3.07;;
16031;SDS011;8120;48.308;8.914;2022-07-29T06:13:24;3.83;;;2.60;;
16031;SDS011;8120;48.308;8.914;2022-07-29T06:15:52;3.47;;;2.77;;
16031;SDS011;8120;48.308;8.914;2022-07-29T06:18:20;4.07;;;2.70;;
16031;SDS011;8120;48.308;8.914;2022-07-29T06:20:51;4.97;;;2.65;;
16031;SDS011;8120;48.308;8.914;2022-07-29T06:23:19;4.18;;;2.40;;
16031;SDS011;8120;48.308;8.914;2022-07-29T06:25:48;3.45;;;2.70;;
16031;SDS011;8120;48.308;8.914;2022-07-29T06:28:16;3.35;;;2.45;;
16031;SDS011;8120;48.308;8.914;2022-07-29T06:30:44;2.60;;;2.40;;
16031;SDS011;8120;48.308;8.914;2022-07-29T06:33:15;3.55;;;2.63;;
16031;SDS011;8120;48.308;8.914;2022-07-29T06:35:44;3.10;;;2.17;;
16031;SDS011;8120;48.308;8.914;2022-07-29T06:38:21;4.03;;;2.67;;
16031;SDS011;8120;48.308;8.914;2022-07-29T06:40:59;5.22;;;2.95;;
16031;SDS011;8120;48.308;8.914;2022-07-29T06:43:28;4.07;;;2.55;;
16031;SDS011;8120;48.308;8.914;2022-07-29T06:46:00;3.67;;;2.60;;
16031;SDS011;8120;48.308;8.914;2022-07-29T06:48:29;3.80;;;2.90;;
16031;SDS011;8120;48.308;8.914;2022-07-29T06:50:57;4.68;;;3.03;;
16031;SDS011;8120;48.308;8.914;2022-07-29T06:53:26;3.60;;;2.70;;
16031;SDS011;8120;48.308;8.914;2022-07-29T06:55:54;4.03;;;2.75;;
16031;SDS011;8120;48.308;8.914;2022-07-29T06:58:24;5.45;;;3.13;;
16031;SDS011;8120;48.308;8.914;2022-07-29T07:00:52;3.97;;;2.90;;
16031;SDS011;8120;48.308;8.914;2022-07-29T07:03:20;4.15;;;3.08;;
16031;SDS011;8120;48.308;8.914;2022-07-29T07:05:48;4.53;;;3.35;;
16031;SDS011;8120;48.308;8.914;2022-07-29T07:08:16;3.25;;;2.70;;
16031;SDS011;8120;48.308;8.914;2022-07-29T07:10:47;4.35;;;2.85;;
16031;SDS011;8120;48.308;8.914;2022-07-29T07:13:15;4.30;;;2.90;;
16031;SDS011;8120;48.308;8.914;2022-07-29T07:15:43;4.20;;;3.30;;
16031;SDS011;8120;48.308;8.914;2022-07-29T07:18:14;5.00;;;3.17;;
16031;SDS011;8120;48.308;8.914;2022-07-29T07:20:42;4.93;;;2.80;;
16031;SDS011;8120;48.308;8.914;2022-07-29T07:23:10;4.00;;;3.25;;
16031;SDS011;8120;48.308;8.914;2022-07-29T07:25:38;5.60;;;3.20;;
16031;SDS011;8120;48.308;8.914;2022-07-29T07:28:07;4.43;;;3.17;;
16031;SDS011;8120;48.308;8.914;2022-07-29T07:30:35;4.82;;;3.38;;
16031;SDS011;8120;48.308;8.914;2022-07-29T07:33:03;4.78;;;3.25;;
16031;SDS011;8120;48.308;8.914;2022-07-29T07:35:31;4.25;;;3.22;;
16031;SDS011;8120;48.308;8.914;2022-07-29T07:37:59;5.10;;;3.25;;
16031;SDS011;8120;48.308;8.914;2022-07-29T07:40:27;4.15;;;3.40;;
16031;SDS011;8120;48.308;8.914;2022-07-29T07:42:55;6.07;;;3.75;;
16031;SDS011;8120;48.308;8.914;2022-07-29T07:45:25;6.10;;;3.55;;
16031;SDS011;8120;48.308;8.914;2022-07-29T07:47:54;5.30;;;3.58;;
16031;SDS011;8120;48.308;8.914;2022-07-29T07:50:21;6.63;;;3.53;;
16031;SDS011;8120;48.308;8.914;2022-07-29T07:52:50;6.05;;;3.60;;
16031;SDS011;8120;48.308;8.914;2022-07-29T07:55:19;6.60;;;3.50;;
16031;SDS011;8120;48.308;8.914;2022-07-29T07:57:47;5.47;;;4.03;;
16031;SDS011;8120;48.308;8.914;2022-07-29T08:00:15;5.65;;;3.45;;
16031;SDS011;8120;48.308;8.914;2022-07-29T08:02:49;4.57;;;3.15;;
16031;SDS011;8120;48.308;8.914;2022-07-29T08:05:17;4.35;;;3.20;;
16031;SDS011;8120;48.308;8.914;2022-07-29T08:07:47;5.03;;;3.40;;
16031;SDS011;8120;48.308;8.914;2022-07-29T08:10:15;4.10;;;3.10;;
16031;SDS011;8120;48.308;8.914;2022-07-29T08:13:06;4.25;;;3.03;;
16031;SDS011;8120;48.308;8.914;2022-07-29T08:15:35;4.38;;;3.22;;
16031;SDS011;8120;48.308;8.914;2022-07-29T08:18:04;4.10;;;3.13;;
16031;SDS011;8120;48.308;8.914;2022-07-29T08:20:34;4.63;;;3.13;;
16031;SDS011;8120;48.308;8.914;2022-07-29T08:23:05;3.70;;;2.95;;
16031;SDS011;8120;48.308;8.914;2022-07-29T08:25:35;5.50;;;3.35;;
16031;SDS011;8120;48.308;8.914;2022-07-29T08:28:05;4.90;;;3.40;;
16031;SDS011;8120;48.308;8.914;2022-07-29T08:30:34;5.40;;;3.50;;
16031;SDS011;8120;48.308;8.914;2022-07-29T08:33:02;4.80;;;2.92;;
16031;SDS011;8120;48.308;8.914;2022-07-29T08:35:31;5.43;;;3.25;;
16031;SDS011;8120;48.308;8.914;2022-07-29T08:38:01;5.28;;;3.03;;
16031;SDS011;8120;48.308;8.914;2022-07-29T08:40:29;5.82;;;3.30;;
16031;SDS011;8120;48.308;8.914;2022-07-29T08:42:58;5.43;;;3.25;;
16031;SDS011;8120;48.308;8.914;2022-07-29T08:45:26;4.35;;;3.30;;
16031;SDS011;8120;48.308;8.914;2022-07-29T08:47:56;4.80;;;3.15;;
16031;SDS011;8120;48.308;8.914;2022-07-29T08:50:24;4.00;;;3.33;;
16031;SDS011;8120;48.308;8.914;2022-07-29T08:52:53;6.18;;;3.00;;
16031;SDS011;8120;48.308;8.914;2022-07-29T08:55:25;5.32;;;3.35;;
16031;SDS011;8120;48.308;8.914;2022-07-29T08:57:53;4.28;;;3.38;;
16031;SDS011;8120;48.308;8.914;2022-07-29T09:00:22;4.78;;;3.50;;
16031;SDS011;8120;48.308;8.914;2022-07-29T09:02:55;4.68;;;3.28;;
16031;SDS011;8120;48.308;8.914;2022-07-29T09:05:26;5.78;;;3.33;;
16031;SDS011;8120;48.308;8.914;2022-07-29T09:07:56;4.28;;;3.10;;
16031;SDS011;8120;48.308;8.914;2022-07-29T09:10:24;5.00;;;3.55;;
16031;SDS011;8120;48.308;8.914;2022-07-29T09:12:52;3.95;;;3.30;;
16031;SDS011;8120;48.308;8.914;2022-07-29T09:15:21;5.00;;;3.63;;
16031;SDS011;8120;48.308;8.914;2022-07-29T09:17:49;5.18;;;3.60;;
16031;SDS011;8120;48.308;8.914;2022-07-29T09:20:17;4.82;;;3.65;;
16031;SDS011;8120;48.308;8.914;2022-07-29T09:22:47;8.40;;;7.28;;
16031;SDS011;8120;48.308;8.914;2022-07-29T09:28:05;6.93;;;3.85;;
16031;SDS011;8120;48.308;8.914;2022-07-29T09:30:34;7.82;;;4.82;;
16031;SDS011;8120;48.308;8.914;2022-07-29T09:33:02;5.13;;;3.95;;
16031;SDS011;8120;48.308;8.914;2022-07-29T09:35:30;6.88;;;4.05;;
16031;SDS011;8120;48.308;8.914;2022-07-29T09:38:09;4.75;;;3.67;;
16031;SDS011;8120;48.308;8.914;2022-07-29T09:40:40;5.97;;;4.35;;
16031;SDS011;8120;48.308;8.914;2022-07-29T09:43:11;7.43;;;5.60;;
16031;SDS011;8120;48.308;8.914;2022-07-29T09:45:40;8.98;;;4.75;;
16031;SDS011;8120;48.308;8.914;2022-07-29T09:48:15;9.45;;;4.63;;
16031;SDS011;8120;48.308;8.914;2022-07-29T09:50:44;5.18;;;3.80;;
16031;SDS011;8120;48.308;8.914;2022-07-29T09:53:29;5.82;;;3.05;;
16031;SDS011;8120;48.308;8.914;2022-07-29T09:56:00;12.90;;;4.72;;
16031;SDS011;8120;48.308;8.914;2022-07-29T09:58:28;13.85;;;11.60;;
16031;SDS011;8120;48.308;8.914;2022-07-29T10:00:56;12.05;;;9.05;;
16031;SDS011;8120;48.308;8.914;2022-07-29T10:03:24;7.22;;;4.70;;
16031;SDS011;8120;48.308;8.914;2022-07-29T10:06:05;7.97;;;3.90;;
16031;SDS011;8120;48.308;8.914;2022-07-29T10:08:34;3.78;;;3.25;;
16031;SDS011;8120;48.308;8.914;2022-07-29T10:11:10;4.50;;;3.00;;
16031;SDS011;8120;48.308;8.914;2022-07-29T10:13:39;8.55;;;3.53;;
16031;SDS011;8120;48.308;8.914;2022-07-29T10:16:08;6.25;;;5.00;;
16031;SDS011;8120;48.308;8.914;2022-07-29T10:18:37;5.63;;;3.75;;
16031;SDS011;8120;48.308;8.914;2022-07-29T10:21:06;5.78;;;3.53;;
16031;SDS011;8120;48.308;8.914;2022-07-29T10:23:35;5.57;;;3.97;;
16031;SDS011;8120;48.308;8.914;2022-07-29T10:26:13;8.15;;;4.40;;
16031;SDS011;8120;48.308;8.914;2022-07-29T10:28:43;3.92;;;3.53;;
16031;SDS011;8120;48.308;8.914;2022-07-29T10:31:12;5.50;;;3.83;;
16031;SDS011;8120;48.308;8.914;2022-07-29T10:33:51;5.93;;;3.70;;
16031;SDS011;8120;48.308;8.914;2022-07-29T10:36:34;6.93;;;3.53;;
16031;SDS011;8120;48.308;8.914;2022-07-29T10:39:16;5.25;;;3.65;;
16031;SDS011;8120;48.308;8.914;2022-07-29T10:42:10;4.35;;;3.60;;
16031;SDS011;8120;48.308;8.914;2022-07-29T10:44:45;5.72;;;3.60;;
16031;SDS011;8120;48.308;8.914;2022-07-29T10:47:20;4.70;;;3.67;;
16031;SDS011;8120;48.308;8.914;2022-07-29T10:49:54;6.70;;;3.55;;
16031;SDS011;8120;48.308;8.914;2022-07-29T10:55:30;5.35;;;3.60;;
16031;SDS011;8120;48.308;8.914;2022-07-29T10:58:12;5.00;;;3.30;;
16031;SDS011;8120;48.308;8.914;2022-07-29T11:00:43;5.53;;;3.78;;
16031;SDS011;8120;48.308;8.914;2022-07-29T11:06:16;5.45;;;4.07;;
16031;SDS011;8120;48.308;8.914;2022-07-29T11:12:00;7.07;;;3.75;;
16031;SDS011;8120;48.308;8.914;2022-07-29T11:17:47;7.03;;;3.38;;
16031;SDS011;8120;48.308;8.914;2022-07-29T11:20:43;4.75;;;3.78;;
16031;SDS011;8120;48.308;8.914;2022-07-29T11:23:21;5.05;;;3.97;;
16031;SDS011;8120;48.308;8.914;2022-07-29T11:26:16;7.13;;;4.07;;
16031;SDS011;8120;48.308;8.914;2022-07-29T11:28:50;6.80;;;4.22;;
16031;SDS011;8120;48.308;8.914;2022-07-29T11:31:36;6.82;;;4.15;;
16031;SDS011;8120;48.308;8.914;2022-07-29T11:34:19;7.85;;;3.95;;
16031;SDS011;8120;48.308;8.914;2022-07-29T11:37:13;6.43;;;3.60;;
16031;SDS011;8120;48.308;8.914;2022-07-29T11:39:45;5.47;;;4.03;;
16031;SDS011;8120;48.308;8.914;2022-07-29T11:45:13;5.75;;;3.72;;
16031;SDS011;8120;48.308;8.914;2022-07-29T11:48:03;5.88;;;3.60;;
16031;SDS011;8120;48.308;8.914;2022-07-29T11:50:53;5.13;;;3.78;;
16031;SDS011;8120;48.308;8.914;2022-07-29T11:53:23;5.72;;;3.33;;
16031;SDS011;8120;48.308;8.914;2022-07-29T11:55:58;4.93;;;3.53;;
16031;SDS011;8120;48.308;8.914;2022-07-29T11:58:28;5.60;;;3.75;;
16031;SDS011;8120;48.308;8.914;2022-07-29T12:00:57;3.58;;;3.28;;
16031;SDS011;8120;48.308;8.914;2022-07-29T12:03:30;5.85;;;4.05;;
16031;SDS011;8120;48.308;8.914;2022-07-29T12:06:20;4.68;;;3.65;;
16031;SDS011;8120;48.308;8.914;2022-07-29T12:08:48;4.00;;;3.33;;
16031;SDS011;8120;48.308;8.914;2022-07-29T12:11:16;5.53;;;3.97;;
16031;SDS011;8120;48.308;8.914;2022-07-29T12:13:47;4.47;;;3.83;;
16031;SDS011;8120;48.308;8.914;2022-07-29T12:16:16;8.00;;;4.07;;
16031;SDS011;8120;48.308;8.914;2022-07-29T12:18:55;6.20;;;4.28;;
16031;SDS011;8120;48.308;8.914;2022-07-29T12:21:26;5.20;;;3.78;;
16031;SDS011;8120;48.308;8.914;2022-07-29T12:23:55;6.15;;;4.20;;
16031;SDS011;8120;48.308;8.914;2022-07-29T12:26:34;5.82;;;4.13;;
16031;SDS011;8120;48.308;8.914;2022-07-29T12:29:02;5.32;;;3.80;;
16031;SDS011;8120;48.308;8.914;2022-07-29T12:31:40;5.85;;;3.88;;
16031;SDS011;8120;48.308;8.914;2022-07-29T12:34:11;7.28;;;3.50;;
16031;SDS011;8120;48.308;8.914;2022-07-29T12:36:41;6.20;;;3.38;;
16031;SDS011;8120;48.308;8.914;2022-07-29T12:39:10;4.80;;;3.97;;
16031;SDS011;8120;48.308;8.914;2022-07-29T12:41:38;5.85;;;4.20;;
16031;SDS011;8120;48.308;8.914;2022-07-29T12:44:06;4.93;;;3.55;;
16031;SDS011;8120;48.308;8.914;2022-07-29T12:46:34;5.30;;;3.80;;
16031;SDS011;8120;48.308;8.914;2022-07-29T12:49:04;5.82;;;3.10;;
16031;SDS011;8120;48.308;8.914;2022-07-29T12:51:33;4.50;;;3.15;;
16031;SDS011;8120;48.308;8.914;2022-07-29T12:54:06;5.72;;;3.42;;
16031;SDS011;8120;48.308;8.914;2022-07-29T12:56:36;6.13;;;3.42;;
16031;SDS011;8120;48.308;8.914;2022-07-29T12:59:16;5.65;;;3.33;;
16031;SDS011;8120;48.308;8.914;2022-07-29T13:01:46;5.18;;;3.17;;
16031;SDS011;8120;48.308;8.914;2022-07-29T13:04:25;5.50;;;3.17;;
16031;SDS011;8120;48.308;8.914;2022-07-29T13:07:00;5.35;;;3.45;;
16031;SDS011;8120;48.308;8.914;2022-07-29T13:09:39;3.55;;;2.95;;
16031;SDS011;8120;48.308;8.914;2022-07-29T13:12:08;4.03;;;2.92;;
16031;SDS011;8120;48.308;8.914;2022-07-29T13:14:38;5.10;;;3.10;;
16031;SDS011;8120;48.308;8.914;2022-07-29T13:17:08;3.90;;;2.80;;
16031;SDS011;8120;48.308;8.914;2022-07-29T13:19:38;5.63;;;3.55;;
16031;SDS011;8120;48.308;8.914;2022-07-29T13:22:07;4.78;;;3.28;;
16031;SDS011;8120;48.308;8.914;2022-07-29T13:24:46;5.43;;;3.25;;
16031;SDS011;8120;48.308;8.914;2022-07-29T13:27:15;5.47;;;3.10;;
16031;SDS011;8120;48.308;8.914;2022-07-29T13:29:43;5.15;;;3.22;;
16031;SDS011;8120;48.308;8.914;2022-07-29T13:32:11;5.40;;;3.33;;
16031;SDS011;8120;48.308;8.914;2022-07-29T13:34:39;3.97;;;3.03;;
16031;SDS011;8120;48.308;8.914;2022-07-29T13:37:08;7.13;;;3.72;;
16031;SDS011;8120;48.308;8.914;2022-07-29T13:39:36;3.83;;;2.58;;
16031;SDS011;8120;48.308;8.914;2022-07-29T13:42:05;4.00;;;3.20;;
16031;SDS011;8120;48.308;8.914;2022-07-29T13:44:36;5.43;;;3.03;;
16031;SDS011;8120;48.308;8.914;2022-07-29T13:47:04;7.50;;;3.00;;
16031;SDS011;8120;48.308;8.914;2022-07-29T13:49:32;4.85;;;3.30;;
16031;SDS011;8120;48.308;8.914;2022-07-29T13:52:00;4.00;;;3.05;;
16031;SDS011;8120;48.308;8.914;2022-07-29T13:54:28;6.10;;;3.00;;
16031;SDS011;8120;48.308;8.914;2022-07-29T13:56:56;5.88;;;3.35;;
16031;SDS011;8120;48.308;8.914;2022-07-29T13:59:25;5.97;;;3.10;;
16031;SDS011;8120;48.308;8.914;2022-07-29T14:01:53;4.13;;;2.70;;
16031;SDS011;8120;48.308;8.914;2022-07-29T14:04:22;5.10;;;3.20;;
16031;SDS011;8120;48.308;8.914;2022-07-29T14:06:50;3.90;;;3.05;;
16031;SDS011;8120;48.308;8.914;2022-07-29T14:09:18;6.20;;;3.00;;
16031;SDS011;8120;48.308;8.914;2022-07-29T14:11:46;3.83;;;2.97;;
16031;SDS011;8120;48.308;8.914;2022-07-29T14:14:16;5.45;;;2.85;;
16031;SDS011;8120;48.308;8.914;2022-07-29T14:16:45;6.07;;;3.25;;
16031;SDS011;8120;48.308;8.914;2022-07-29T14:19:17;5.20;;;3.58;;
16031;SDS011;8120;48.308;8.914;2022-07-29T14:21:45;5.32;;;3.42;;
16031;SDS011;8120;48.308;8.914;2022-07-29T14:24:15;5.57;;;3.65;;
16031;SDS011;8120;48.308;8.914;2022-07-29T14:26:48;6.72;;;3.40;;
16031;SDS011;8120;48.308;8.914;2022-07-29T14:29:16;6.28;;;3.33;;
16031;SDS011;8120;48.308;8.914;2022-07-29T14:31:46;4.78;;;3.38;;
16031;SDS011;8120;48.308;8.914;2022-07-29T14:34:14;5.65;;;3.55;;
16031;SDS011;8120;48.308;8.914;2022-07-29T14:36:42;4.20;;;3.40;;
16031;SDS011;8120;48.308;8.914;2022-07-29T14:39:10;5.97;;;3.70;;
16031;SDS011;8120;48.308;8.914;2022-07-29T14:41:37;4.70;;;3.45;;
16031;SDS011;8120;48.308;8.914;2022-07-29T14:44:05;4.75;;;3.55;;
16031;SDS011;8120;48.308;8.914;2022-07-29T14:46:33;5.43;;;3.22;;
16031;SDS011;8120;48.308;8.914;2022-07-29T14:49:03;5.05;;;3.70;;
16031;SDS011;8120;48.308;8.914;2022-07-29T14:51:34;4.20;;;3.30;;
16031;SDS011;8120;48.308;8.914;2022-07-29T14:54:02;4.75;;;3.65;;
16031;SDS011;8120;48.308;8.914;2022-07-29T14:56:30;3.78;;;3.33;;
16031;SDS011;8120;48.308;8.914;2022-07-29T14:59:02;7.45;;;3.83;;
16031;SDS011;8120;48.308;8.914;2022-07-29T15:01:30;4.88;;;3.55;;
16031;SDS011;8120;48.308;8.914;2022-07-29T15:03:58;4.30;;;3.40;;
16031;SDS011;8120;48.308;8.914;2022-07-29T15:06:28;4.60;;;3.38;;
16031;SDS011;8120;48.308;8.914;2022-07-29T15:08:56;5.95;;;3.13;;
16031;SDS011;8120;48.308;8.914;2022-07-29T15:11:23;4.22;;;3.38;;
16031;SDS011;8120;48.308;8.914;2022-07-29T15:13:51;5.82;;;3.55;;
16031;SDS011;8120;48.308;8.914;2022-07-29T15:16:20;7.40;;;3.25;;
16031;SDS011;8120;48.308;8.914;2022-07-29T15:18:48;5.75;;;3.67;;
16031;SDS011;8120;48.308;8.914;2022-07-29T15:21:16;3.88;;;2.92;;
16031;SDS011;8120;48.308;8.914;2022-07-29T15:23:45;6.05;;;3.83;;
16031;SDS011;8120;48.308;8.914;2022-07-29T15:26:13;3.40;;;2.88;;
16031;SDS011;8120;48.308;8.914;2022-07-29T15:28:41;6.22;;;3.25;;
16031;SDS011;8120;48.308;8.914;2022-07-29T15:31:09;4.95;;;3.10;;
16031;SDS011;8120;48.308;8.914;2022-07-29T15:33:37;6.47;;;3.50;;
16031;SDS011;8120;48.308;8.914;2022-07-29T15:36:05;7.47;;;3.75;;
16031;SDS011;8120;48.308;8.914;2022-07-29T15:38:33;4.93;;;3.42;;
16031;SDS011;8120;48.308;8.914;2022-07-29T15:41:08;4.40;;;3.00;;